Weather observations for the past three days for
Quebec City Jean Lesage International Airport
Imperial (Metric)
Date Time (edt) Wind (mph) Vis. (mi.) Weather Sky Cond. Temperature (ºF) Relative Humidity Wind Chill (°F) Heat Index (°F) Pressure Precipitation (in)
Air Dwpt 6 hour altimeter (in) sea level (mb) 1 hr 3 hr 6 hr
Max. Min.
10 15:00 W 28 G 36 30.00 Partly Cloudy and Windy FEW076 SCT160 62.6 28.4 27% 29.75 1007.9
10 14:00 W 24 30.00 Partly Cloudy and Breezy SCT065 SCT140 64.4 33.8 32% 29.74 1007.5
10 13:00 SW 20 G 32 30.00 Mostly Cloudy SCT050 BKN140 62.6 37.4 39% 29.75 1007.6
10 12:00 SW 17 G 30 30.00 Partly Cloudy SCT059 SCT090 62.6 41 45% 29.75 1007.7
10 11:00 SW 16 G 23 30.00 Mostly Cloudy BKN048 BKN090 60.8 42.8 52% 29.76 1008.2
10 10:00 SW 15 30.00 Mostly Cloudy SCT030 BKN052 BKN069 55.4 46.4 72% 29.76 1008.0
10 09:00 Vrbl 2 20.00 Light Showers Rain BKN023 BKN040 OVC070 51.8 48.2 88% 29.75 1007.8
10 08:00 Calm 25.00 Overcast BKN024 OVC050 50 46.4 88% 29.75 1007.9
10 07:00 E 5 25.00 Overcast FEW018 BKN026 OVC048 48.2 44.6 87% 47 29.73 1007.2
10 06:00 N 3 20.00 Overcast FEW018 OVC027 46.4 44.6 93% 29.72 1006.8
10 05:00 Vrbl 2 6.00 Light Rain Fog/Mist OVC027 46.4 42.8 87% 29.72 1006.7
10 04:00 E 7 15.00 Overcast OVC030 48.2 41 76% 46 29.73 1007.2
10 03:00 E 8 15.00 Overcast FEW044 BKN053 OVC066 48.2 39.2 71% 45 29.74 1007.4
10 01:00 SE 9 15.00 Mostly Cloudy BKN040 BKN075 48.2 37.4 66% 45 29.77 1008.5
10 00:00 SE 9 G 17 15.00 Mostly Cloudy FEW050 BKN075 48.2 37.4 66% 45 29.78 1008.9
09 23:00 SE 14 15.00 Mostly Cloudy BKN080 51.8 35.6 54% 29.79 1009.0
09 22:00 S 12 15.00 A Few Clouds FEW095 FEW210 53.6 32 44% 29.78 1008.8
09 21:00 S 12 G 21 15.00 Partly Cloudy FEW096 SCT210 57.2 30.2 36% 29.77 1008.5
09 20:00 S 6 30.00 Mostly Cloudy SCT100 BKN200 BKN250 59 23 25% 29.74 1007.5
09 19:00 SE 8 30.00 Mostly Cloudy SCT100 BKN200 62.6 26.6 25% 29.74 1007.4
09 18:00 S 8 30.00 Partly Cloudy FEW085 SCT200 64.4 26.6 24% 29.75 1007.7
09 17:00 S 10 G 18 30.00 Partly Cloudy SCT087 SCT200 64.4 26.6 24% 29.76 1008.2
09 16:00 S 6 30.00 Mostly Cloudy SCT089 BKN200 60.8 26.6 27% 29.76 1008.3
09 15:00 SW 13 G 20 30.00 Mostly Cloudy SCT065 BKN120 62.6 28.4 27% 29.79 1009.1
09 14:00 SW 13 G 20 30.00 Mostly Cloudy SCT065 BKN120 62.6 32 32% 29.81 1010.0
09 13:00 SW 9 G 17 30.00 Partly Cloudy SCT065 SCT120 59 30.2 34% 29.83 1010.6
09 12:00 W 8 30.00 Mostly Cloudy SCT070 SCT120 BKN250 57.2 30.2 36% 29.86 1011.6
09 11:00 SW 9 30.00 Partly Cloudy FEW070 SCT110 55.4 32 41% 29.87 1012.1
09 10:00 SW 12 G 20 30.00 Mostly Cloudy SCT070 BKN120 51.8 32 47% 29.88 1012.3
09 09:00 W 8 30.00 Mostly Cloudy FEW070 BKN100 48.2 32 54% 45 29.88 1012.2
09 08:00 E 3 30.00 Partly Cloudy SCT070 44.6 33.8 66% 29.87 1012.1
09 07:00 Vrbl 2 30.00 Partly Cloudy FEW070 SCT110 39.2 35.6 87% 29.87 1011.9
09 06:00 NE 3 30.00 Mostly Cloudy SCT080 BKN120 35.6 32 87% 29.85 1011.4
09 05:00 Vrbl 2 15.00 Mostly Cloudy SCT075 BKN120 33.8 32 93% 29.84 1011.0
09 04:00 NE 2 15.00 Mostly Cloudy BKN080 BKN110 35.6 33.8 93% 29.84 1011.0
09 03:00 N 3 15.00 Mostly Cloudy BKN120 33.8 32 93% 29.83 1010.7
09 02:00 Calm 15.00 A Few Clouds FEW070 33.8 32 93% 29.83 1010.7
09 01:00 Calm 15.00 Partly Cloudy FEW110 SCT220 37.4 33.8 87% 29.83 1010.6
09 00:00 Vrbl 2 15.00 Mostly Cloudy FEW075 BKN110 39.2 33.8 81% 29.82 1010.2
08 23:00 Vrbl 2 15.00 Mostly Cloudy FEW075 BKN110 BKN220 39.2 32 75% 29.81 1009.8
08 22:00 Calm 15.00 Mostly Cloudy FEW066 SCT074 BKN110 42.8 33.8 71% 29.8 1009.7
08 21:00 W 5 15.00 Mostly Cloudy FEW050 BKN110 44.6 35.6 71% 43 29.79 1009.3
08 20:00 W 6 30.00 Mostly Cloudy FEW050 FEW060 BKN110 BKN200 44.6 33.8 66% 42 29.77 1008.7
08 19:00 SW 7 30.00 Mostly Cloudy FEW050 FEW060 BKN092 BKN140 BKN200 46.4 33.8 62% 43 29.76 1008.3
08 18:00 W 15 30.00 Mostly Cloudy FEW038 SCT078 BKN100 BKN200 50 33.8 54% 45 29.75 1007.8
08 17:00 W 15 30.00 Mostly Cloudy FEW055 BKN075 BKN100 50 32 50% 45 29.73 1007.3
08 16:00 W 18 30.00 Mostly Cloudy FEW050 SCT078 BKN110 46.4 35.6 66% 40 29.74 1007.5
08 15:00 W 17 30.00 Mostly Cloudy BKN050 BKN080 51.8 33.8 50% 29.72 1006.7
08 14:00 W 21 30.00 Mostly Cloudy and Breezy BKN045 BKN078 BKN110 50 32 50% 44 29.73 1007.0
08 13:00 W 12 G 20 30.00 Showers in Vicinity BKN040 BKN080 51.8 35.6 54% 29.72 1006.8
08 12:00 SW 14 G 21 30.00 Showers in Vicinity BKN030TCU BKN080 50 35.6 58% 45 29.72 1006.7
08 11:00 SW 15 30.00 Light Showers Rain BKN025TCU BKN080 48.2 37.4 66% 43 29.73 1007.0
08 10:00 SW 13 30.00 Mostly Cloudy SCT020 BKN070 44.6 37.4 76% 39 29.74 1007.6
08 09:00 SW 7 30.00 Mostly Cloudy FEW015 BKN065 BKN083 46.4 37.4 71% 43 29.74 1007.7
08 08:00 W 3 30.00 A Few Clouds FEW012 FEW060 FEW120 42.8 35.6 76% 29.73 1007.4
08 07:00 SW 7 30.00 A Few Clouds FEW010 FEW060 FEW100 37.4 35.6 93% 33 29.73 1007.1
08 06:00 SW 9 30.00 Mostly Cloudy FEW020 BKN063 35.6 33.8 93% 29 29.71 1006.6
08 05:00 W 6 30.00 Mostly Cloudy FEW020 BKN062 37.4 35.6 93% 33 29.7 1006.3
08 04:00 W 9 15.00 Mostly Cloudy SCT020 BKN062 BKN120 37.4 35.6 93% 31 29.7 1006.3
08 03:00 SW 8 15.00 Mostly Cloudy FEW020 BKN062 39.2 35.6 87% 34 29.7 1006.2
08 02:00 S 6 15.00 Mostly Cloudy FEW020 BKN063 41 35.6 81% 38 29.7 1006.3
08 01:00 SW 6 15.00 Mostly Cloudy FEW020 BKN070 41 35.6 81% 38 29.71 1006.5
08 00:00 W 5 15.00 Mostly Cloudy FEW020 BKN058 41 37.4 87% 38 29.7 1006.4
07 23:00 W 5 15.00 Mostly Cloudy FEW020 BKN080 41 37.4 87% 38 29.7 1006.2
07 22:00 W 14 15.00 Mostly Cloudy FEW020 BKN050 BKN070 41 39.2 93% 34 29.7 1006.2
07 21:00 W 9 15.00 Mostly Cloudy FEW020 FEW032 BKN050 BKN074 41 39.2 93% 36 29.71 1006.5
07 20:00 SW 12 G 18 30.00 Showers in Vicinity FEW020 FEW027 BKN052 BKN120 42.8 37.4 81% 37 29.69 1005.8
07 19:00 W 9 30.00 Mostly Cloudy FEW021 BKN029 BKN110 46.4 37.4 71% 42 29.67 1005.0
07 18:00 W 14 G 20 30.00 Mostly Cloudy SCT021 BKN097 46.4 39.2 76% 41 29.65 1004.6
07 17:00 W 14 30.00 Mostly Cloudy FEW023 SCT050 BKN070 BKN120 46.4 37.4 71% 41 29.64 1004.2
Date Time (edt) Wind (mph) Vis. (mi.) Weather Sky Cond. Air Dwpt Max. Min. Relative Humidity Wind Chill (°F) Heat Index (°F) altimeter (in) sea level (mb) 1 hr 3 hr 6 hr
6 hour
Temperature (ºF) Pressure Precipitation (in)